URWW

Volgograd International Airport

Airport
ICAO code
URWW
IATA Code
VOG
Summary
ICAO Region
EUR
ICAO Territory
Location

Gumrak, Volgograd Oblast

Serving
Volgograd
Elevation
482 ft
Coordinates
48° 46' 54" N , 44° 20' 48" E
KCC
Metar
URWW 280600Z 09006MPS CAVOK M08/M13 Q1038 R05/010070 NOSIG

Volgograd International Airport is an airport located 15 km northwest of the city of Volgograd, formerly Stalingrad, in Russia.

Climatology

Hot summer humid continental climate (Köppen climate classification Aw)

Runways

Designator Length Width Surface Rops
8/26 486 107 GRS No/No
11R/29L 1699 101 GRS No/No
11/29 2469 49 ASP Yes/Yes

Airport map

Aerial View

SKYbrary Partners:

Safety knowledge contributed by: